sensor_id;sensor_type;location;lat;lon;timestamp;P1;durP1;ratioP1;P2;durP2;ratioP2
7761;SDS011;3925;48.636;9.516;2022-08-19T00:00:07;23.73;;;21.70;;
7761;SDS011;3925;48.636;9.516;2022-08-19T00:02:35;23.27;;;21.37;;
7761;SDS011;3925;48.636;9.516;2022-08-19T00:05:03;26.83;;;24.43;;
7761;SDS011;3925;48.636;9.516;2022-08-19T00:07:32;25.80;;;23.63;;
7761;SDS011;3925;48.636;9.516;2022-08-19T00:09:58;24.87;;;22.47;;
7761;SDS011;3925;48.636;9.516;2022-08-19T00:12:25;24.60;;;22.50;;
7761;SDS011;3925;48.636;9.516;2022-08-19T00:14:53;23.87;;;21.77;;
7761;SDS011;3925;48.636;9.516;2022-08-19T00:17:20;24.10;;;22.07;;
7761;SDS011;3925;48.636;9.516;2022-08-19T00:19:47;27.00;;;24.60;;
7761;SDS011;3925;48.636;9.516;2022-08-19T00:22:14;25.07;;;22.83;;
7761;SDS011;3925;48.636;9.516;2022-08-19T00:24:44;24.07;;;21.87;;
7761;SDS011;3925;48.636;9.516;2022-08-19T00:27:11;27.17;;;24.77;;
7761;SDS011;3925;48.636;9.516;2022-08-19T00:29:39;27.47;;;25.07;;
7761;SDS011;3925;48.636;9.516;2022-08-19T00:32:06;27.07;;;24.70;;
7761;SDS011;3925;48.636;9.516;2022-08-19T00:34:33;25.13;;;23.13;;
7761;SDS011;3925;48.636;9.516;2022-08-19T00:37:00;28.60;;;25.90;;
7761;SDS011;3925;48.636;9.516;2022-08-19T00:39:27;28.53;;;25.93;;
7761;SDS011;3925;48.636;9.516;2022-08-19T00:41:56;27.93;;;25.63;;
7761;SDS011;3925;48.636;9.516;2022-08-19T00:44:24;25.50;;;23.30;;
7761;SDS011;3925;48.636;9.516;2022-08-19T00:46:54;30.00;;;27.40;;
7761;SDS011;3925;48.636;9.516;2022-08-19T00:49:25;25.80;;;23.60;;
7761;SDS011;3925;48.636;9.516;2022-08-19T00:51:55;29.20;;;26.57;;
7761;SDS011;3925;48.636;9.516;2022-08-19T00:54:26;26.57;;;24.37;;
7761;SDS011;3925;48.636;9.516;2022-08-19T00:56:57;26.30;;;23.70;;
7761;SDS011;3925;48.636;9.516;2022-08-19T00:59:25;26.47;;;24.07;;
7761;SDS011;3925;48.636;9.516;2022-08-19T01:01:53;24.70;;;22.50;;
7761;SDS011;3925;48.636;9.516;2022-08-19T01:04:20;25.33;;;23.07;;
7761;SDS011;3925;48.636;9.516;2022-08-19T01:06:47;26.37;;;24.10;;
7761;SDS011;3925;48.636;9.516;2022-08-19T01:09:14;28.90;;;26.07;;
7761;SDS011;3925;48.636;9.516;2022-08-19T01:11:41;25.27;;;23.07;;
7761;SDS011;3925;48.636;9.516;2022-08-19T01:14:12;27.43;;;25.07;;
7761;SDS011;3925;48.636;9.516;2022-08-19T01:16:39;26.60;;;24.40;;
7761;SDS011;3925;48.636;9.516;2022-08-19T01:19:09;25.53;;;23.30;;
7761;SDS011;3925;48.636;9.516;2022-08-19T01:21:46;28.10;;;25.80;;
7761;SDS011;3925;48.636;9.516;2022-08-19T01:24:20;27.43;;;25.03;;
7761;SDS011;3925;48.636;9.516;2022-08-19T01:26:47;27.93;;;25.43;;
7761;SDS011;3925;48.636;9.516;2022-08-19T01:29:14;26.10;;;23.70;;
7761;SDS011;3925;48.636;9.516;2022-08-19T01:31:41;25.97;;;23.67;;
7761;SDS011;3925;48.636;9.516;2022-08-19T01:34:08;23.80;;;21.70;;
7761;SDS011;3925;48.636;9.516;2022-08-19T01:36:36;24.97;;;22.77;;
7761;SDS011;3925;48.636;9.516;2022-08-19T01:39:11;28.03;;;25.47;;
7761;SDS011;3925;48.636;9.516;2022-08-19T01:41:40;31.03;;;28.20;;
7761;SDS011;3925;48.636;9.516;2022-08-19T01:44:08;28.27;;;25.57;;
7761;SDS011;3925;48.636;9.516;2022-08-19T01:46:36;26.90;;;24.40;;
7761;SDS011;3925;48.636;9.516;2022-08-19T01:49:04;29.20;;;26.60;;
7761;SDS011;3925;48.636;9.516;2022-08-19T01:51:33;25.93;;;23.40;;
7761;SDS011;3925;48.636;9.516;2022-08-19T01:54:00;24.80;;;22.60;;
7761;SDS011;3925;48.636;9.516;2022-08-19T01:56:27;28.50;;;26.10;;
7761;SDS011;3925;48.636;9.516;2022-08-19T01:58:56;27.87;;;25.23;;
7761;SDS011;3925;48.636;9.516;2022-08-19T02:01:26;27.47;;;24.73;;
7761;SDS011;3925;48.636;9.516;2022-08-19T02:03:57;27.70;;;24.90;;
7761;SDS011;3925;48.636;9.516;2022-08-19T02:06:25;28.27;;;25.57;;
7761;SDS011;3925;48.636;9.516;2022-08-19T02:08:53;26.90;;;24.30;;
7761;SDS011;3925;48.636;9.516;2022-08-19T02:11:20;25.93;;;23.57;;
7761;SDS011;3925;48.636;9.516;2022-08-19T02:13:49;28.80;;;26.20;;
7761;SDS011;3925;48.636;9.516;2022-08-19T02:16:18;25.50;;;23.07;;
7761;SDS011;3925;48.636;9.516;2022-08-19T02:18:45;28.13;;;25.53;;
7761;SDS011;3925;48.636;9.516;2022-08-19T02:21:13;25.17;;;22.87;;
7761;SDS011;3925;48.636;9.516;2022-08-19T02:23:40;26.93;;;24.13;;
7761;SDS011;3925;48.636;9.516;2022-08-19T02:26:07;27.20;;;24.50;;
7761;SDS011;3925;48.636;9.516;2022-08-19T02:28:35;27.00;;;24.37;;
7761;SDS011;3925;48.636;9.516;2022-08-19T02:31:02;25.90;;;23.50;;
7761;SDS011;3925;48.636;9.516;2022-08-19T02:33:31;23.73;;;21.53;;
7761;SDS011;3925;48.636;9.516;2022-08-19T02:35:58;26.70;;;24.13;;
7761;SDS011;3925;48.636;9.516;2022-08-19T02:38:24;26.20;;;23.70;;
7761;SDS011;3925;48.636;9.516;2022-08-19T02:40:51;25.20;;;22.60;;
7761;SDS011;3925;48.636;9.516;2022-08-19T02:43:19;27.27;;;24.73;;
7761;SDS011;3925;48.636;9.516;2022-08-19T02:45:47;25.13;;;22.77;;
7761;SDS011;3925;48.636;9.516;2022-08-19T02:48:16;26.00;;;23.60;;
7761;SDS011;3925;48.636;9.516;2022-08-19T02:50:46;25.33;;;22.90;;
7761;SDS011;3925;48.636;9.516;2022-08-19T02:53:13;26.20;;;23.67;;
7761;SDS011;3925;48.636;9.516;2022-08-19T02:55:43;24.53;;;22.27;;
7761;SDS011;3925;48.636;9.516;2022-08-19T02:58:11;26.13;;;23.73;;
7761;SDS011;3925;48.636;9.516;2022-08-19T03:00:44;27.00;;;24.40;;
7761;SDS011;3925;48.636;9.516;2022-08-19T03:03:13;27.60;;;24.83;;
7761;SDS011;3925;48.636;9.516;2022-08-19T03:05:40;26.87;;;24.30;;
7761;SDS011;3925;48.636;9.516;2022-08-19T03:08:09;26.43;;;23.80;;
7761;SDS011;3925;48.636;9.516;2022-08-19T03:10:41;25.77;;;23.37;;
7761;SDS011;3925;48.636;9.516;2022-08-19T03:13:10;26.30;;;23.80;;
7761;SDS011;3925;48.636;9.516;2022-08-19T03:15:40;27.73;;;25.13;;
7761;SDS011;3925;48.636;9.516;2022-08-19T03:18:08;25.57;;;22.97;;
7761;SDS011;3925;48.636;9.516;2022-08-19T03:20:39;25.67;;;23.20;;
7761;SDS011;3925;48.636;9.516;2022-08-19T03:23:08;25.33;;;22.87;;
7761;SDS011;3925;48.636;9.516;2022-08-19T03:25:36;26.37;;;23.73;;
7761;SDS011;3925;48.636;9.516;2022-08-19T03:28:04;27.33;;;24.70;;
7761;SDS011;3925;48.636;9.516;2022-08-19T03:30:31;27.00;;;24.43;;
7761;SDS011;3925;48.636;9.516;2022-08-19T03:32:58;25.13;;;22.63;;
7761;SDS011;3925;48.636;9.516;2022-08-19T03:35:25;25.07;;;22.70;;
7761;SDS011;3925;48.636;9.516;2022-08-19T03:37:52;25.30;;;22.73;;
7761;SDS011;3925;48.636;9.516;2022-08-19T03:40:20;26.90;;;24.30;;
7761;SDS011;3925;48.636;9.516;2022-08-19T03:42:47;26.33;;;23.73;;
7761;SDS011;3925;48.636;9.516;2022-08-19T03:45:15;25.77;;;23.33;;
7761;SDS011;3925;48.636;9.516;2022-08-19T03:47:42;25.03;;;22.53;;
7761;SDS011;3925;48.636;9.516;2022-08-19T03:50:08;25.60;;;23.03;;
7761;SDS011;3925;48.636;9.516;2022-08-19T03:52:35;24.63;;;22.23;;
7761;SDS011;3925;48.636;9.516;2022-08-19T03:55:03;25.97;;;23.17;;
7761;SDS011;3925;48.636;9.516;2022-08-19T03:57:31;24.90;;;22.60;;
7761;SDS011;3925;48.636;9.516;2022-08-19T03:59:59;24.67;;;22.37;;
7761;SDS011;3925;48.636;9.516;2022-08-19T04:02:26;26.20;;;23.67;;
7761;SDS011;3925;48.636;9.516;2022-08-19T04:04:53;25.83;;;23.40;;
7761;SDS011;3925;48.636;9.516;2022-08-19T04:07:20;24.17;;;21.50;;
7761;SDS011;3925;48.636;9.516;2022-08-19T04:09:47;25.07;;;22.77;;
7761;SDS011;3925;48.636;9.516;2022-08-19T04:12:15;26.60;;;24.00;;
7761;SDS011;3925;48.636;9.516;2022-08-19T04:14:43;25.20;;;22.70;;
7761;SDS011;3925;48.636;9.516;2022-08-19T04:17:10;26.53;;;24.00;;
7761;SDS011;3925;48.636;9.516;2022-08-19T04:19:39;27.90;;;23.63;;
7761;SDS011;3925;48.636;9.516;2022-08-19T04:22:08;26.53;;;23.63;;
7761;SDS011;3925;48.636;9.516;2022-08-19T04:24:36;26.50;;;23.90;;
7761;SDS011;3925;48.636;9.516;2022-08-19T04:27:03;26.87;;;24.33;;
7761;SDS011;3925;48.636;9.516;2022-08-19T04:29:31;25.90;;;23.10;;
7761;SDS011;3925;48.636;9.516;2022-08-19T04:31:59;26.90;;;24.27;;
7761;SDS011;3925;48.636;9.516;2022-08-19T04:34:28;25.30;;;22.83;;
7761;SDS011;3925;48.636;9.516;2022-08-19T04:36:56;26.63;;;24.03;;
7761;SDS011;3925;48.636;9.516;2022-08-19T04:39:24;26.40;;;23.60;;
7761;SDS011;3925;48.636;9.516;2022-08-19T04:42:08;25.33;;;22.73;;
7761;SDS011;3925;48.636;9.516;2022-08-19T04:44:53;27.50;;;24.77;;
7761;SDS011;3925;48.636;9.516;2022-08-19T04:47:22;26.83;;;24.23;;
7761;SDS011;3925;48.636;9.516;2022-08-19T04:49:48;25.70;;;23.23;;
7761;SDS011;3925;48.636;9.516;2022-08-19T04:52:15;26.60;;;23.83;;
7761;SDS011;3925;48.636;9.516;2022-08-19T04:54:42;25.77;;;23.00;;
7761;SDS011;3925;48.636;9.516;2022-08-19T04:57:09;25.50;;;23.00;;
7761;SDS011;3925;48.636;9.516;2022-08-19T04:59:36;25.27;;;22.77;;
7761;SDS011;3925;48.636;9.516;2022-08-19T05:02:04;24.20;;;22.07;;
7761;SDS011;3925;48.636;9.516;2022-08-19T05:04:34;26.67;;;24.17;;
7761;SDS011;3925;48.636;9.516;2022-08-19T05:07:04;27.40;;;24.80;;
7761;SDS011;3925;48.636;9.516;2022-08-19T05:09:31;25.53;;;23.00;;
7761;SDS011;3925;48.636;9.516;2022-08-19T05:11:57;27.87;;;25.03;;
7761;SDS011;3925;48.636;9.516;2022-08-19T05:14:25;26.60;;;24.00;;
7761;SDS011;3925;48.636;9.516;2022-08-19T05:16:52;27.40;;;24.80;;
7761;SDS011;3925;48.636;9.516;2022-08-19T05:19:19;25.43;;;22.90;;
7761;SDS011;3925;48.636;9.516;2022-08-19T05:22:04;31.53;;;24.40;;
7761;SDS011;3925;48.636;9.516;2022-08-19T05:24:48;26.17;;;23.57;;
7761;SDS011;3925;48.636;9.516;2022-08-19T05:27:15;26.00;;;23.50;;
7761;SDS011;3925;48.636;9.516;2022-08-19T05:29:42;25.03;;;22.70;;
7761;SDS011;3925;48.636;9.516;2022-08-19T05:32:09;26.27;;;23.73;;
7761;SDS011;3925;48.636;9.516;2022-08-19T05:34:37;26.87;;;24.13;;
7761;SDS011;3925;48.636;9.516;2022-08-19T05:37:05;25.70;;;23.20;;
7761;SDS011;3925;48.636;9.516;2022-08-19T05:39:34;27.60;;;24.80;;
7761;SDS011;3925;48.636;9.516;2022-08-19T05:42:03;28.03;;;25.33;;
7761;SDS011;3925;48.636;9.516;2022-08-19T05:44:32;29.33;;;26.53;;
7761;SDS011;3925;48.636;9.516;2022-08-19T05:47:02;26.83;;;24.10;;
7761;SDS011;3925;48.636;9.516;2022-08-19T05:49:31;28.03;;;25.27;;
7761;SDS011;3925;48.636;9.516;2022-08-19T05:52:01;28.80;;;26.07;;
7761;SDS011;3925;48.636;9.516;2022-08-19T05:54:31;25.73;;;23.23;;
7761;SDS011;3925;48.636;9.516;2022-08-19T05:57:00;28.63;;;25.77;;
7761;SDS011;3925;48.636;9.516;2022-08-19T05:59:28;27.50;;;24.90;;
7761;SDS011;3925;48.636;9.516;2022-08-19T06:01:54;28.30;;;25.60;;
7761;SDS011;3925;48.636;9.516;2022-08-19T06:04:23;29.10;;;26.30;;
7761;SDS011;3925;48.636;9.516;2022-08-19T06:06:51;28.97;;;25.93;;
7761;SDS011;3925;48.636;9.516;2022-08-19T06:09:19;27.50;;;24.90;;
7761;SDS011;3925;48.636;9.516;2022-08-19T06:11:48;27.53;;;24.87;;
7761;SDS011;3925;48.636;9.516;2022-08-19T06:14:19;30.97;;;27.87;;
7761;SDS011;3925;48.636;9.516;2022-08-19T06:16:48;26.60;;;23.90;;
7761;SDS011;3925;48.636;9.516;2022-08-19T06:19:17;29.03;;;26.23;;
7761;SDS011;3925;48.636;9.516;2022-08-19T06:21:46;28.80;;;26.10;;
7761;SDS011;3925;48.636;9.516;2022-08-19T06:24:15;27.90;;;25.10;;
7761;SDS011;3925;48.636;9.516;2022-08-19T06:26:44;29.90;;;26.90;;
7761;SDS011;3925;48.636;9.516;2022-08-19T06:29:15;28.33;;;25.50;;
7761;SDS011;3925;48.636;9.516;2022-08-19T06:31:44;28.00;;;25.30;;
7761;SDS011;3925;48.636;9.516;2022-08-19T06:34:15;27.87;;;25.13;;
7761;SDS011;3925;48.636;9.516;2022-08-19T06:36:43;29.73;;;26.97;;
7761;SDS011;3925;48.636;9.516;2022-08-19T06:39:12;29.60;;;26.50;;
7761;SDS011;3925;48.636;9.516;2022-08-19T06:41:42;30.00;;;27.10;;
7761;SDS011;3925;48.636;9.516;2022-08-19T06:44:11;28.07;;;25.27;;
7761;SDS011;3925;48.636;9.516;2022-08-19T06:46:40;28.17;;;25.33;;
7761;SDS011;3925;48.636;9.516;2022-08-19T06:49:08;29.87;;;26.87;;
7761;SDS011;3925;48.636;9.516;2022-08-19T06:51:38;29.50;;;26.40;;
7761;SDS011;3925;48.636;9.516;2022-08-19T06:54:07;28.33;;;25.40;;
7761;SDS011;3925;48.636;9.516;2022-08-19T06:56:36;29.87;;;26.90;;
7761;SDS011;3925;48.636;9.516;2022-08-19T06:59:04;27.93;;;25.23;;
7761;SDS011;3925;48.636;9.516;2022-08-19T07:01:35;30.73;;;27.70;;
7761;SDS011;3925;48.636;9.516;2022-08-19T07:04:03;28.30;;;25.50;;
7761;SDS011;3925;48.636;9.516;2022-08-19T07:06:31;30.13;;;27.10;;
7761;SDS011;3925;48.636;9.516;2022-08-19T07:08:58;32.57;;;29.27;;
7761;SDS011;3925;48.636;9.516;2022-08-19T07:11:25;29.30;;;26.30;;
7761;SDS011;3925;48.636;9.516;2022-08-19T07:13:53;31.83;;;28.47;;
7761;SDS011;3925;48.636;9.516;2022-08-19T07:16:20;33.07;;;28.87;;
7761;SDS011;3925;48.636;9.516;2022-08-19T07:18:49;30.63;;;27.77;;
7761;SDS011;3925;48.636;9.516;2022-08-19T07:21:18;30.20;;;27.00;;
7761;SDS011;3925;48.636;9.516;2022-08-19T07:23:46;30.37;;;27.37;;
7761;SDS011;3925;48.636;9.516;2022-08-19T07:26:17;31.30;;;28.13;;
7761;SDS011;3925;48.636;9.516;2022-08-19T07:28:46;30.37;;;27.53;;
7761;SDS011;3925;48.636;9.516;2022-08-19T07:31:15;31.00;;;28.10;;
7761;SDS011;3925;48.636;9.516;2022-08-19T07:33:44;32.07;;;28.67;;
7761;SDS011;3925;48.636;9.516;2022-08-19T07:36:13;33.70;;;30.20;;
7761;SDS011;3925;48.636;9.516;2022-08-19T07:38:42;33.03;;;29.43;;
7761;SDS011;3925;48.636;9.516;2022-08-19T07:41:13;30.50;;;27.57;;
7761;SDS011;3925;48.636;9.516;2022-08-19T07:43:44;33.00;;;29.40;;
7761;SDS011;3925;48.636;9.516;2022-08-19T07:46:12;33.60;;;30.20;;
7761;SDS011;3925;48.636;9.516;2022-08-19T07:48:40;32.73;;;29.63;;
7761;SDS011;3925;48.636;9.516;2022-08-19T07:51:14;32.50;;;29.17;;
7761;SDS011;3925;48.636;9.516;2022-08-19T07:53:43;32.73;;;29.40;;
7761;SDS011;3925;48.636;9.516;2022-08-19T07:56:11;32.63;;;29.20;;
7761;SDS011;3925;48.636;9.516;2022-08-19T07:58:40;32.90;;;29.70;;
7761;SDS011;3925;48.636;9.516;2022-08-19T08:01:09;32.60;;;29.27;;
7761;SDS011;3925;48.636;9.516;2022-08-19T08:03:37;32.00;;;28.70;;
7761;SDS011;3925;48.636;9.516;2022-08-19T08:06:20;33.10;;;29.53;;
7761;SDS011;3925;48.636;9.516;2022-08-19T08:09:04;36.13;;;32.27;;
7761;SDS011;3925;48.636;9.516;2022-08-19T08:11:41;36.97;;;33.27;;
7761;SDS011;3925;48.636;9.516;2022-08-19T08:14:15;33.10;;;29.70;;
7761;SDS011;3925;48.636;9.516;2022-08-19T08:16:43;31.87;;;28.60;;
7761;SDS011;3925;48.636;9.516;2022-08-19T08:19:11;31.30;;;28.20;;
7761;SDS011;3925;48.636;9.516;2022-08-19T08:21:41;31.37;;;28.33;;
7761;SDS011;3925;48.636;9.516;2022-08-19T08:24:08;32.50;;;29.10;;
7761;SDS011;3925;48.636;9.516;2022-08-19T08:26:36;36.60;;;32.90;;
7761;SDS011;3925;48.636;9.516;2022-08-19T08:29:03;34.23;;;31.00;;
7761;SDS011;3925;48.636;9.516;2022-08-19T08:31:33;32.37;;;29.27;;
7761;SDS011;3925;48.636;9.516;2022-08-19T08:34:00;33.53;;;30.23;;
7761;SDS011;3925;48.636;9.516;2022-08-19T08:36:27;31.00;;;27.97;;
7761;SDS011;3925;48.636;9.516;2022-08-19T08:38:59;33.80;;;30.53;;
7761;SDS011;3925;48.636;9.516;2022-08-19T08:41:28;31.30;;;28.20;;
7761;SDS011;3925;48.636;9.516;2022-08-19T08:44:03;33.50;;;30.10;;
7761;SDS011;3925;48.636;9.516;2022-08-19T08:46:34;30.90;;;27.90;;
7761;SDS011;3925;48.636;9.516;2022-08-19T08:49:06;31.97;;;28.70;;
7761;SDS011;3925;48.636;9.516;2022-08-19T08:51:51;32.87;;;29.63;;
7761;SDS011;3925;48.636;9.516;2022-08-19T08:54:27;34.43;;;30.83;;
7761;SDS011;3925;48.636;9.516;2022-08-19T08:56:58;31.40;;;28.10;;
7761;SDS011;3925;48.636;9.516;2022-08-19T08:59:26;30.50;;;27.63;;
7761;SDS011;3925;48.636;9.516;2022-08-19T09:01:57;34.40;;;30.87;;
7761;SDS011;3925;48.636;9.516;2022-08-19T09:04:24;30.70;;;27.50;;
7761;SDS011;3925;48.636;9.516;2022-08-19T09:06:53;29.80;;;26.90;;
7761;SDS011;3925;48.636;9.516;2022-08-19T09:09:32;34.77;;;31.30;;
7761;SDS011;3925;48.636;9.516;2022-08-19T09:12:05;28.10;;;25.50;;
7761;SDS011;3925;48.636;9.516;2022-08-19T09:14:43;31.10;;;28.10;;
7761;SDS011;3925;48.636;9.516;2022-08-19T09:17:14;31.70;;;28.40;;
7761;SDS011;3925;48.636;9.516;2022-08-19T09:19:52;34.73;;;29.93;;
7761;SDS011;3925;48.636;9.516;2022-08-19T09:22:20;33.40;;;30.20;;
7761;SDS011;3925;48.636;9.516;2022-08-19T09:24:50;32.13;;;28.67;;
7761;SDS011;3925;48.636;9.516;2022-08-19T09:27:18;30.73;;;27.57;;
7761;SDS011;3925;48.636;9.516;2022-08-19T09:29:46;31.63;;;28.33;;
7761;SDS011;3925;48.636;9.516;2022-08-19T09:32:13;33.77;;;30.57;;
7761;SDS011;3925;48.636;9.516;2022-08-19T09:34:40;32.50;;;29.10;;
7761;SDS011;3925;48.636;9.516;2022-08-19T09:37:08;30.97;;;27.87;;
7761;SDS011;3925;48.636;9.516;2022-08-19T09:39:35;31.80;;;28.70;;
7761;SDS011;3925;48.636;9.516;2022-08-19T09:42:07;31.83;;;28.57;;
7761;SDS011;3925;48.636;9.516;2022-08-19T09:44:37;31.23;;;28.17;;
7761;SDS011;3925;48.636;9.516;2022-08-19T09:47:04;27.97;;;25.20;;
7761;SDS011;3925;48.636;9.516;2022-08-19T09:49:32;30.20;;;27.20;;
7761;SDS011;3925;48.636;9.516;2022-08-19T09:51:59;32.07;;;29.13;;
7761;SDS011;3925;48.636;9.516;2022-08-19T09:54:26;32.00;;;28.63;;
7761;SDS011;3925;48.636;9.516;2022-08-19T09:56:54;31.37;;;28.13;;
7761;SDS011;3925;48.636;9.516;2022-08-19T09:59:23;28.60;;;25.80;;
7761;SDS011;3925;48.636;9.516;2022-08-19T10:01:50;30.63;;;27.90;;
7761;SDS011;3925;48.636;9.516;2022-08-19T10:04:17;32.77;;;29.37;;
7761;SDS011;3925;48.636;9.516;2022-08-19T10:06:46;29.87;;;26.90;;
7761;SDS011;3925;48.636;9.516;2022-08-19T10:09:15;31.30;;;28.10;;
7761;SDS011;3925;48.636;9.516;2022-08-19T10:11:43;32.77;;;29.53;;
7761;SDS011;3925;48.636;9.516;2022-08-19T10:14:13;28.07;;;25.37;;
7761;SDS011;3925;48.636;9.516;2022-08-19T10:16:43;30.80;;;27.70;;
7761;SDS011;3925;48.636;9.516;2022-08-19T10:19:10;30.17;;;27.17;;
7761;SDS011;3925;48.636;9.516;2022-08-19T10:21:36;33.03;;;29.60;;
7761;SDS011;3925;48.636;9.516;2022-08-19T10:24:04;31.37;;;28.47;;
7761;SDS011;3925;48.636;9.516;2022-08-19T10:26:33;28.47;;;25.67;;
7761;SDS011;3925;48.636;9.516;2022-08-19T10:29:01;31.93;;;28.70;;
7761;SDS011;3925;48.636;9.516;2022-08-19T10:31:30;29.50;;;26.60;;
7761;SDS011;3925;48.636;9.516;2022-08-19T10:34:00;33.40;;;30.03;;
7761;SDS011;3925;48.636;9.516;2022-08-19T10:36:29;29.60;;;26.70;;
7761;SDS011;3925;48.636;9.516;2022-08-19T10:38:58;30.30;;;27.43;;
7761;SDS011;3925;48.636;9.516;2022-08-19T10:41:28;28.10;;;25.43;;
7761;SDS011;3925;48.636;9.516;2022-08-19T10:43:57;29.83;;;26.83;;
7761;SDS011;3925;48.636;9.516;2022-08-19T10:46:26;28.53;;;25.77;;
7761;SDS011;3925;48.636;9.516;2022-08-19T10:48:57;31.57;;;28.53;;
7761;SDS011;3925;48.636;9.516;2022-08-19T10:51:26;30.87;;;27.87;;
7761;SDS011;3925;48.636;9.516;2022-08-19T10:54:11;33.30;;;30.03;;
7761;SDS011;3925;48.636;9.516;2022-08-19T10:56:38;29.90;;;27.07;;
7761;SDS011;3925;48.636;9.516;2022-08-19T10:59:16;34.27;;;30.90;;
7761;SDS011;3925;48.636;9.516;2022-08-19T11:01:46;30.37;;;27.47;;
7761;SDS011;3925;48.636;9.516;2022-08-19T11:04:15;29.53;;;26.57;;
7761;SDS011;3925;48.636;9.516;2022-08-19T11:06:43;31.60;;;28.70;;
7761;SDS011;3925;48.636;9.516;2022-08-19T11:09:12;28.77;;;25.83;;
7761;SDS011;3925;48.636;9.516;2022-08-19T11:11:39;29.60;;;26.80;;
7761;SDS011;3925;48.636;9.516;2022-08-19T11:14:07;32.07;;;28.93;;
7761;SDS011;3925;48.636;9.516;2022-08-19T11:16:34;27.77;;;24.83;;
7761;SDS011;3925;48.636;9.516;2022-08-19T11:19:03;29.70;;;26.90;;
7761;SDS011;3925;48.636;9.516;2022-08-19T11:21:34;30.80;;;27.67;;
7761;SDS011;3925;48.636;9.516;2022-08-19T11:24:03;31.83;;;28.73;;
7761;SDS011;3925;48.636;9.516;2022-08-19T11:26:33;31.53;;;28.63;;
7761;SDS011;3925;48.636;9.516;2022-08-19T11:29:00;28.17;;;25.40;;
7761;SDS011;3925;48.636;9.516;2022-08-19T11:31:30;30.10;;;26.90;;
7761;SDS011;3925;48.636;9.516;2022-08-19T11:33:58;30.37;;;27.67;;
7761;SDS011;3925;48.636;9.516;2022-08-19T11:36:27;30.40;;;27.57;;
7761;SDS011;3925;48.636;9.516;2022-08-19T11:38:56;28.03;;;25.43;;
7761;SDS011;3925;48.636;9.516;2022-08-19T11:41:23;31.10;;;28.00;;
7761;SDS011;3925;48.636;9.516;2022-08-19T11:43:51;27.83;;;25.13;;
7761;SDS011;3925;48.636;9.516;2022-08-19T11:46:20;25.83;;;23.47;;
7761;SDS011;3925;48.636;9.516;2022-08-19T11:48:48;25.03;;;22.83;;
7761;SDS011;3925;48.636;9.516;2022-08-19T11:51:18;29.00;;;26.20;;
7761;SDS011;3925;48.636;9.516;2022-08-19T11:53:46;28.40;;;25.67;;
7761;SDS011;3925;48.636;9.516;2022-08-19T11:56:15;29.40;;;26.60;;
7761;SDS011;3925;48.636;9.516;2022-08-19T11:58:43;28.03;;;25.50;;
7761;SDS011;3925;48.636;9.516;2022-08-19T12:01:11;31.20;;;28.40;;
7761;SDS011;3925;48.636;9.516;2022-08-19T12:03:41;31.03;;;28.10;;
7761;SDS011;3925;48.636;9.516;2022-08-19T12:06:09;32.30;;;29.10;;
7761;SDS011;3925;48.636;9.516;2022-08-19T12:08:38;31.43;;;28.60;;
7761;SDS011;3925;48.636;9.516;2022-08-19T12:11:05;33.73;;;30.63;;
7761;SDS011;3925;48.636;9.516;2022-08-19T12:13:34;29.80;;;26.70;;
7761;SDS011;3925;48.636;9.516;2022-08-19T12:16:06;32.57;;;29.50;;
7761;SDS011;3925;48.636;9.516;2022-08-19T12:18:34;33.77;;;30.33;;
7761;SDS011;3925;48.636;9.516;2022-08-19T12:21:01;33.07;;;29.93;;
7761;SDS011;3925;48.636;9.516;2022-08-19T12:23:28;30.77;;;27.97;;
7761;SDS011;3925;48.636;9.516;2022-08-19T12:25:55;32.70;;;29.47;;
7761;SDS011;3925;48.636;9.516;2022-08-19T12:28:23;28.30;;;25.67;;
7761;SDS011;3925;48.636;9.516;2022-08-19T12:30:52;35.90;;;32.30;;
7761;SDS011;3925;48.636;9.516;2022-08-19T12:33:19;31.83;;;28.83;;
7761;SDS011;3925;48.636;9.516;2022-08-19T12:35:49;31.80;;;28.67;;
7761;SDS011;3925;48.636;9.516;2022-08-19T12:38:16;29.87;;;27.07;;
7761;SDS011;3925;48.636;9.516;2022-08-19T12:40:45;32.40;;;29.30;;
7761;SDS011;3925;48.636;9.516;2022-08-19T12:43:13;31.90;;;25.30;;
7761;SDS011;3925;48.636;9.516;2022-08-19T12:45:41;32.47;;;29.13;;
7761;SDS011;3925;48.636;9.516;2022-08-19T12:48:10;30.80;;;27.70;;
7761;SDS011;3925;48.636;9.516;2022-08-19T12:50:38;29.33;;;26.53;;
7761;SDS011;3925;48.636;9.516;2022-08-19T12:53:05;28.23;;;25.27;;
7761;SDS011;3925;48.636;9.516;2022-08-19T12:55:32;29.33;;;26.57;;
7761;SDS011;3925;48.636;9.516;2022-08-19T12:57:59;28.63;;;25.70;;
7761;SDS011;3925;48.636;9.516;2022-08-19T13:00:28;28.83;;;26.23;;
7761;SDS011;3925;48.636;9.516;2022-08-19T13:02:57;28.70;;;26.00;;
7761;SDS011;3925;48.636;9.516;2022-08-19T13:05:27;25.83;;;23.43;;
7761;SDS011;3925;48.636;9.516;2022-08-19T13:07:56;25.00;;;22.67;;
7761;SDS011;3925;48.636;9.516;2022-08-19T13:10:26;28.60;;;25.90;;
7761;SDS011;3925;48.636;9.516;2022-08-19T13:12:57;26.30;;;23.87;;
7761;SDS011;3925;48.636;9.516;2022-08-19T13:15:24;29.43;;;26.73;;
7761;SDS011;3925;48.636;9.516;2022-08-19T13:17:53;25.33;;;23.17;;
7761;SDS011;3925;48.636;9.516;2022-08-19T13:20:21;25.77;;;23.40;;
7761;SDS011;3925;48.636;9.516;2022-08-19T13:22:50;25.33;;;22.93;;
7761;SDS011;3925;48.636;9.516;2022-08-19T13:25:17;24.83;;;22.43;;
7761;SDS011;3925;48.636;9.516;2022-08-19T13:27:46;24.60;;;22.20;;
7761;SDS011;3925;48.636;9.516;2022-08-19T13:30:15;28.93;;;26.03;;
7761;SDS011;3925;48.636;9.516;2022-08-19T13:33:00;29.40;;;26.60;;
7761;SDS011;3925;48.636;9.516;2022-08-19T13:35:44;27.33;;;24.37;;
7761;SDS011;3925;48.636;9.516;2022-08-19T13:38:15;28.00;;;25.20;;
7761;SDS011;3925;48.636;9.516;2022-08-19T13:40:43;29.03;;;26.23;;
7761;SDS011;3925;48.636;9.516;2022-08-19T13:43:11;30.27;;;27.37;;
7761;SDS011;3925;48.636;9.516;2022-08-19T13:45:38;26.67;;;24.07;;
7761;SDS011;3925;48.636;9.516;2022-08-19T13:48:06;27.48;;;25.27;;
7761;SDS011;3925;48.636;9.516;2022-08-19T13:50:35;26.13;;;23.83;;
7761;SDS011;3925;48.636;9.516;2022-08-19T13:53:05;27.90;;;25.27;;
7761;SDS011;3925;48.636;9.516;2022-08-19T13:55:34;24.80;;;22.67;;
7761;SDS011;3925;48.636;9.516;2022-08-19T13:58:02;28.47;;;25.77;;
7761;SDS011;3925;48.636;9.516;2022-08-19T14:00:31;31.70;;;28.70;;
7761;SDS011;3925;48.636;9.516;2022-08-19T14:03:01;27.90;;;25.30;;
7761;SDS011;3925;48.636;9.516;2022-08-19T14:05:29;32.90;;;29.70;;
7761;SDS011;3925;48.636;9.516;2022-08-19T14:07:57;31.27;;;28.07;;
7761;SDS011;3925;48.636;9.516;2022-08-19T14:10:25;30.77;;;27.87;;
7761;SDS011;3925;48.636;9.516;2022-08-19T14:12:57;31.87;;;28.90;;
7761;SDS011;3925;48.636;9.516;2022-08-19T14:15:26;28.60;;;26.00;;
7761;SDS011;3925;48.636;9.516;2022-08-19T14:17:54;31.07;;;27.97;;
7761;SDS011;3925;48.636;9.516;2022-08-19T14:20:21;29.63;;;26.97;;
7761;SDS011;3925;48.636;9.516;2022-08-19T14:22:49;29.23;;;26.37;;
7761;SDS011;3925;48.636;9.516;2022-08-19T14:25:17;26.73;;;24.10;;
7761;SDS011;3925;48.636;9.516;2022-08-19T14:27:46;28.33;;;25.57;;
7761;SDS011;3925;48.636;9.516;2022-08-19T14:30:15;28.60;;;26.00;;
7761;SDS011;3925;48.636;9.516;2022-08-19T14:32:44;27.37;;;24.67;;
7761;SDS011;3925;48.636;9.516;2022-08-19T14:35:11;28.10;;;25.40;;
7761;SDS011;3925;48.636;9.516;2022-08-19T14:37:41;28.87;;;25.97;;
7761;SDS011;3925;48.636;9.516;2022-08-19T14:40:09;26.63;;;24.23;;
7761;SDS011;3925;48.636;9.516;2022-08-19T14:42:37;25.53;;;23.33;;
7761;SDS011;3925;48.636;9.516;2022-08-19T14:45:04;25.17;;;23.07;;
7761;SDS011;3925;48.636;9.516;2022-08-19T14:47:34;26.80;;;24.00;;
7761;SDS011;3925;48.636;9.516;2022-08-19T14:50:01;26.17;;;23.87;;
7761;SDS011;3925;48.636;9.516;2022-08-19T14:52:28;25.67;;;23.27;;
7761;SDS011;3925;48.636;9.516;2022-08-19T14:54:56;27.27;;;24.57;;
7761;SDS011;3925;48.636;9.516;2022-08-19T14:57:23;26.40;;;23.90;;